createdAt,value
2023-01-11T00:00:46.152Z,100724.23
2023-01-11T00:03:18.259Z,100724.90
2023-01-11T00:05:46.211Z,100728.35
2023-01-11T00:08:14.084Z,100726.13
2023-01-11T00:10:41.938Z,100724.23
2023-01-11T00:13:09.765Z,100724.60
2023-01-11T00:15:38.553Z,100719.91
2023-01-11T00:18:06.683Z,100712.44
2023-01-11T00:20:34.702Z,100708.53
2023-01-11T00:23:02.543Z,100713.10
2023-01-11T00:25:30.474Z,100717.23
2023-01-11T00:27:58.279Z,100724.16
2023-01-11T00:30:26.204Z,100723.76
2023-01-11T00:32:58.999Z,100727.91
2023-01-11T00:35:29.853Z,100729.00
2023-01-11T00:37:57.915Z,100728.73
2023-01-11T00:40:27.099Z,100736.63
2023-01-11T00:43:13.611Z,100731.85
2023-01-11T00:46:00.071Z,100724.05
2023-01-11T00:48:27.958Z,100726.45
2023-01-11T00:50:57.279Z,100729.09
2023-01-11T00:53:25.261Z,100735.67
2023-01-11T00:55:53.230Z,100739.48
2023-01-11T00:58:21.132Z,100741.76
2023-01-11T01:00:48.967Z,100743.35
2023-01-11T01:03:16.850Z,100745.65
2023-01-11T01:05:44.754Z,100748.27
2023-01-11T01:08:12.628Z,100747.66
2023-01-11T01:10:40.578Z,100750.17
2023-01-11T01:13:29.638Z,100750.08
2023-01-11T01:15:59.052Z,100749.67
2023-01-11T01:18:27.034Z,100751.63
2023-01-11T01:20:55.119Z,100751.38
2023-01-11T01:23:23.099Z,100749.03
2023-01-11T01:25:50.976Z,100747.02
2023-01-11T01:28:21.959Z,100749.80
2023-01-11T01:30:53.236Z,100753.28
2023-01-11T01:33:21.114Z,100750.17
2023-01-11T01:35:49.325Z,100749.88
2023-01-11T01:38:17.424Z,100750.09
2023-01-11T01:40:47.742Z,100751.67
2023-01-11T01:43:18.018Z,100754.14
2023-01-11T01:45:45.941Z,100754.89
2023-01-11T01:48:19.162Z,100760.25
2023-01-11T01:50:51.311Z,100757.88
2023-01-11T01:53:22.037Z,100753.27
2023-01-11T01:55:53.790Z,100748.98
2023-01-11T01:58:27.788Z,100746.80
2023-01-11T02:00:55.543Z,100744.96
2023-01-11T02:03:26.904Z,100745.54
2023-01-11T02:05:54.981Z,100745.73
2023-01-11T02:08:38.092Z,100744.42
2023-01-11T02:11:27.913Z,100744.14
2023-01-11T02:14:03.392Z,100747.67
2023-01-11T02:16:31.283Z,100750.10
2023-01-11T02:19:00.534Z,100749.93
2023-01-11T02:22:13.885Z,100745.02
2023-01-11T02:25:20.120Z,100743.52
2023-01-11T02:27:58.774Z,100741.37
2023-01-11T02:30:39.072Z,100734.88
2023-01-11T02:37:17.722Z,100730.55
2023-01-11T02:39:51.280Z,100732.60
2023-01-11T02:42:57.285Z,100736.63
2023-01-11T02:45:50.655Z,100730.96
2023-01-11T02:48:32.737Z,100727.73
2023-01-11T02:51:14.939Z,100729.22
2023-01-11T02:54:02.639Z,100730.14
2023-01-11T02:56:35.196Z,100737.94
2023-01-11T02:59:05.308Z,100736.23
2023-01-11T03:01:33.239Z,100734.87
2023-01-11T03:04:00.966Z,100732.51
2023-01-11T03:06:34.207Z,100730.74
2023-01-11T03:09:31.074Z,100730.17
2023-01-11T03:12:38.737Z,100729.13
2023-01-11T03:15:33.556Z,100734.25
2023-01-11T03:18:16.488Z,100739.60
2023-01-11T03:20:51.014Z,100739.80
2023-01-11T03:23:31.669Z,100737.74
2023-01-11T03:26:07.609Z,100737.41
2023-01-11T03:28:43.544Z,100736.91
2023-01-11T03:31:23.089Z,100729.35
2023-01-11T03:33:58.760Z,100727.82
2023-01-11T03:36:31.265Z,100726.16
2023-01-11T03:39:22.285Z,100724.46
2023-01-11T03:41:56.444Z,100721.02
2023-01-11T03:44:27.582Z,100717.47
2023-01-11T03:47:01.178Z,100718.02
2023-01-11T03:49:40.889Z,100719.46
2023-01-11T03:52:15.885Z,100716.87
2023-01-11T03:54:45.390Z,100717.68
2023-01-11T03:57:23.479Z,100722.67
2023-01-11T03:59:51.645Z,100720.19
2023-01-11T04:02:45.528Z,100718.02
2023-01-11T04:05:13.541Z,100722.45
2023-01-11T04:07:41.711Z,100719.55
2023-01-11T04:10:10.354Z,100722.39
2023-01-11T04:12:38.362Z,100725.17
2023-01-11T04:15:06.905Z,100728.05
2023-01-11T04:17:34.758Z,100728.52
2023-01-11T04:20:02.580Z,100732.60
2023-01-11T04:22:30.521Z,100729.09
2023-01-11T04:24:58.321Z,100722.68
2023-01-11T04:27:26.265Z,100724.12
2023-01-11T04:29:54.142Z,100723.77
2023-01-11T04:34:39.132Z,100718.14
2023-01-11T04:37:06.976Z,100720.91
2023-01-11T04:39:34.765Z,100717.33
2023-01-11T04:42:21.080Z,100714.45
2023-01-11T04:44:50.502Z,100712.49
2023-01-11T04:47:21.041Z,100716.20
2023-01-11T04:49:49.488Z,100720.59
2023-01-11T04:52:19.658Z,100725.73
2023-01-11T04:54:48.766Z,100718.31
2023-01-11T04:57:17.561Z,100720.02
2023-01-11T04:59:48.765Z,100720.58
2023-01-11T05:02:17.161Z,100724.39
2023-01-11T05:04:45.142Z,100722.67
2023-01-11T05:07:13.100Z,100720.31
2023-01-11T05:09:41.145Z,100719.08
2023-01-11T05:12:09.117Z,100718.55
2023-01-11T05:14:36.935Z,100723.91
2023-01-11T05:17:04.792Z,100726.28
2023-01-11T05:19:32.517Z,100724.73
2023-01-11T05:22:00.308Z,100721.30
2023-01-11T05:24:28.092Z,100718.73
2023-01-11T05:26:55.979Z,100717.83
2023-01-11T05:29:23.861Z,100724.89
2023-01-11T05:31:51.945Z,100720.39
2023-01-11T05:34:20.287Z,100721.89
2023-01-11T05:36:48.201Z,100718.41
2023-01-11T05:39:16.177Z,100718.44
2023-01-11T05:41:44.209Z,100712.91
2023-01-11T05:44:32.215Z,100711.52
2023-01-11T05:47:00.244Z,100708.75
2023-01-11T05:49:28.195Z,100706.44
2023-01-11T05:51:56.521Z,100704.23
2023-01-11T05:54:24.438Z,100699.23
2023-01-11T05:56:52.286Z,100695.70
2023-01-11T05:59:20.235Z,100691.50
2023-01-11T06:01:48.170Z,100691.29
2023-01-11T06:04:16.265Z,100687.28
2023-01-11T06:06:44.242Z,100687.73
2023-01-11T06:09:12.366Z,100687.54
2023-01-11T06:11:40.212Z,100687.70
2023-01-11T06:14:07.988Z,100685.92
2023-01-11T06:16:36.053Z,100687.38
2023-01-11T06:19:04.092Z,100688.22
2023-01-11T06:21:32.013Z,100691.08
2023-01-11T06:23:59.971Z,100692.73
2023-01-11T06:26:27.883Z,100692.67
2023-01-11T06:28:55.700Z,100687.52
2023-01-11T06:31:23.692Z,100690.06
2023-01-11T06:33:51.676Z,100690.05
2023-01-11T06:36:19.485Z,100688.14
2023-01-11T06:38:47.241Z,100686.15
2023-01-11T06:41:15.908Z,100688.08
2023-01-11T06:43:44.098Z,100685.84
2023-01-11T06:46:16.672Z,100683.98
2023-01-11T06:48:44.786Z,100680.70
2023-01-11T06:51:13.858Z,100682.59
2023-01-11T06:53:43.040Z,100683.95
2023-01-11T06:56:13.170Z,100682.27
2023-01-11T06:58:41.029Z,100684.35
2023-01-11T07:01:08.968Z,100685.88
2023-01-11T07:03:39.182Z,100692.45
2023-01-11T07:06:07.365Z,100688.52
2023-01-11T07:08:35.269Z,100685.94
2023-01-11T07:11:03.156Z,100693.34
2023-01-11T07:13:30.968Z,100688.92
2023-01-11T07:15:59.164Z,100692.33
2023-01-11T07:18:27.022Z,100690.58
2023-01-11T07:20:54.881Z,100688.55
2023-01-11T07:23:22.782Z,100690.41
2023-01-11T07:25:50.614Z,100691.46
2023-01-11T07:28:18.634Z,100692.25
2023-01-11T07:30:58.112Z,100693.52
2023-01-11T07:33:27.484Z,100692.21
2023-01-11T07:35:55.510Z,100688.39
2023-01-11T07:38:23.531Z,100679.60
2023-01-11T07:40:51.305Z,100677.10
2023-01-11T07:43:21.520Z,100679.00
2023-01-11T07:45:52.081Z,100676.92
2023-01-11T07:48:27.070Z,100678.41
2023-01-11T07:50:55.732Z,100681.81
2023-01-11T07:53:26.238Z,100683.20
2023-01-11T07:55:57.193Z,100678.80
2023-01-11T07:58:25.413Z,100678.81
2023-01-11T08:00:53.297Z,100677.92
2023-01-11T08:03:21.380Z,100679.37
2023-01-11T08:05:51.571Z,100677.05
2023-01-11T08:08:20.050Z,100673.23
2023-01-11T08:11:07.971Z,100672.90
2023-01-11T08:13:54.616Z,100672.10
2023-01-11T08:16:22.702Z,100671.54
2023-01-11T08:18:52.802Z,100668.80
2023-01-11T08:21:21.470Z,100671.11
2023-01-11T08:23:49.795Z,100675.43
2023-01-11T08:26:18.070Z,100674.05
2023-01-11T08:28:47.005Z,100671.22
2023-01-11T08:31:15.024Z,100674.61
2023-01-11T08:33:43.280Z,100678.51
2023-01-11T08:36:12.884Z,100676.25
2023-01-11T08:38:40.789Z,100675.27
2023-01-11T08:41:10.711Z,100675.02
2023-01-11T08:43:39.368Z,100676.95
2023-01-11T08:46:10.478Z,100670.79
2023-01-11T08:48:38.498Z,100672.09
2023-01-11T08:51:06.473Z,100671.95
2023-01-11T08:53:34.605Z,100673.94
2023-01-11T08:56:02.503Z,100679.64
2023-01-11T08:58:30.440Z,100679.28
2023-01-11T09:01:00.055Z,100675.01
2023-01-11T09:03:28.722Z,100680.59
2023-01-11T09:05:57.114Z,100683.34
2023-01-11T09:08:26.588Z,100687.93
2023-01-11T09:10:56.689Z,100680.13
2023-01-11T09:13:24.481Z,100677.73
2023-01-11T09:15:57.128Z,100676.54
2023-01-11T09:18:26.969Z,100670.65
2023-01-11T09:20:55.082Z,100663.09
2023-01-11T09:23:23.431Z,100659.55
2023-01-11T09:25:51.595Z,100656.40
2023-01-11T09:28:19.563Z,100652.23
2023-01-11T09:30:47.482Z,100647.94
2023-01-11T09:33:15.312Z,100641.55
2023-01-11T09:35:45.780Z,100636.70
2023-01-11T09:38:14.063Z,100630.02
2023-01-11T09:41:00.509Z,100632.77
2023-01-11T09:43:30.922Z,100635.11
2023-01-11T09:46:06.721Z,100640.52
2023-01-11T09:48:48.301Z,100635.36
2023-01-11T09:51:17.229Z,100639.96
2023-01-11T09:53:49.947Z,100643.86
2023-01-11T09:56:25.515Z,100642.37
2023-01-11T09:59:06.604Z,100635.14
2023-01-11T10:01:46.940Z,100628.52
2023-01-11T10:04:41.752Z,100631.04
2023-01-11T10:07:23.126Z,100629.38
2023-01-11T10:18:44.371Z,100617.83
2023-01-11T10:19:38.706Z,100612.98
2023-01-11T10:22:23.824Z,100607.98
2023-01-11T10:25:01.549Z,100608.82
2023-01-11T10:27:38.225Z,100606.70
2023-01-11T10:30:37.505Z,100611.61
2023-01-11T10:33:25.474Z,100613.42
2023-01-11T10:36:18.568Z,100614.33
2023-01-11T10:39:27.944Z,100615.73
2023-01-11T10:42:09.529Z,100619.39
2023-01-11T10:44:44.862Z,100613.60
2023-01-11T10:47:19.769Z,100612.46
2023-01-11T10:50:18.726Z,100605.95
2023-01-11T10:53:19.284Z,100598.73
2023-01-11T10:55:59.145Z,100593.81
2023-01-11T10:58:46.423Z,100589.36
2023-01-11T11:04:48.240Z,100578.39
2023-01-11T11:07:34.872Z,100579.78
2023-01-11T11:10:11.282Z,100576.73
2023-01-11T11:12:48.577Z,100575.63
2023-01-11T11:15:38.870Z,100572.89
2023-01-11T11:18:06.882Z,100571.55
2023-01-11T11:20:35.163Z,100562.96
2023-01-11T11:23:03.136Z,100556.73
2023-01-11T11:25:34.780Z,100547.27
2023-01-11T11:28:24.854Z,100540.33
2023-01-11T11:30:54.689Z,100536.48
2023-01-11T11:33:46.416Z,100531.98
2023-01-11T11:36:15.001Z,100525.35
2023-01-11T11:39:02.493Z,100527.50
2023-01-11T11:41:47.017Z,100521.98
2023-01-11T11:44:34.062Z,100516.46
2023-01-11T11:47:07.069Z,100500.92
2023-01-11T11:49:36.843Z,100508.30
2023-01-11T11:52:07.081Z,100511.52
2023-01-11T11:54:41.489Z,100506.63
2023-01-11T11:57:28.079Z,100507.93
2023-01-11T12:00:09.145Z,100502.90
2023-01-11T12:02:49.681Z,100501.34
2023-01-11T12:05:17.919Z,100503.23
2023-01-11T12:07:55.212Z,100498.38
2023-01-11T12:10:26.984Z,100493.31
2023-01-11T12:12:59.500Z,100495.58
2023-01-11T12:15:32.244Z,100485.73
2023-01-11T12:18:23.077Z,100482.48
2023-01-11T12:20:50.886Z,100476.20
2023-01-11T12:23:21.466Z,100476.92
2023-01-11T12:26:01.691Z,100474.44
2023-01-11T12:29:01.935Z,100469.43
2023-01-11T12:31:35.734Z,100469.14
2023-01-11T12:34:17.148Z,100465.28
2023-01-11T12:36:54.099Z,100461.40
2023-01-11T12:39:50.591Z,100455.88
2023-01-11T12:42:37.024Z,100451.13
2023-01-11T12:45:37.141Z,100451.89
2023-01-11T12:48:38.327Z,100449.06
2023-01-11T12:51:31.241Z,100450.36
2023-01-11T12:54:20.819Z,100447.31
2023-01-11T12:56:51.522Z,100439.92
2023-01-11T12:59:51.286Z,100434.98
2023-01-11T13:02:25.270Z,100422.96
2023-01-11T13:05:24.810Z,100417.67
2023-01-11T13:08:20.629Z,100413.66
2023-01-11T13:11:35.253Z,100409.16
2023-01-11T13:14:22.451Z,100408.71
2023-01-11T13:17:27.600Z,100412.06
2023-01-11T13:20:29.361Z,100414.86
2023-01-11T13:23:03.424Z,100415.99
2023-01-11T13:25:36.581Z,100414.44
2023-01-11T13:28:24.038Z,100412.14
2023-01-11T13:30:52.455Z,100404.36
2023-01-11T13:33:27.165Z,100402.30
2023-01-11T13:36:02.850Z,100400.85
2023-01-11T13:38:45.199Z,100404.45
2023-01-11T13:41:20.986Z,100400.25
2023-01-11T13:43:59.746Z,100401.39
2023-01-11T13:46:53.164Z,100398.13
2023-01-11T13:49:45.899Z,100397.71
2023-01-11T13:52:17.545Z,100396.50
2023-01-11T13:55:11.264Z,100398.09
2023-01-11T13:58:07.121Z,100396.36
2023-01-11T14:00:37.865Z,100393.90
2023-01-11T14:03:20.262Z,100391.64
2023-01-11T14:06:20.494Z,100390.46
2023-01-11T14:08:54.087Z,100388.50
2023-01-11T14:11:48.227Z,100387.09
2023-01-11T14:14:37.459Z,100385.62
2023-01-11T14:17:20.959Z,100384.73
2023-01-11T14:20:13.262Z,100387.23
2023-01-11T14:22:41.110Z,100380.71
2023-01-11T14:25:14.349Z,100379.16
2023-01-11T14:28:01.229Z,100376.71
2023-01-11T14:30:37.990Z,100377.84
2023-01-11T14:33:23.759Z,100378.14
2023-01-11T14:36:29.352Z,100378.96
2023-01-11T14:39:28.000Z,100371.46
2023-01-11T14:41:58.908Z,100367.78
2023-01-11T14:44:35.875Z,100371.81
2023-01-11T14:47:34.034Z,100367.69
2023-01-11T14:50:41.026Z,100364.10
2023-01-11T14:53:16.016Z,100358.34
2023-01-11T14:55:45.250Z,100362.96
2023-01-11T14:58:32.576Z,100365.04
2023-01-11T15:01:00.400Z,100360.45
2023-01-11T15:03:38.535Z,100353.20
2023-01-11T15:06:15.064Z,100353.56
2023-01-11T15:08:50.155Z,100349.65
2023-01-11T15:11:26.183Z,100348.14
2023-01-11T15:14:05.722Z,100349.19
2023-01-11T15:16:55.034Z,100347.17
2023-01-11T15:19:34.680Z,100335.95
2023-01-11T15:22:06.269Z,100337.13
2023-01-11T15:24:40.634Z,100338.66
2023-01-11T15:27:24.727Z,100339.98
2023-01-11T15:29:57.310Z,100336.25
2023-01-11T15:32:30.764Z,100328.56
2023-01-11T15:35:23.239Z,100326.42
2023-01-11T15:37:55.066Z,100323.81
2023-01-11T15:40:22.901Z,100319.71
2023-01-11T15:43:12.540Z,100318.15
2023-01-11T15:46:03.487Z,100314.02
2023-01-11T15:48:43.538Z,100312.85
2023-01-11T15:52:00.250Z,100311.73
2023-01-11T15:54:28.148Z,100311.54
2023-01-11T15:57:12.266Z,100310.32
2023-01-11T16:00:21.668Z,100317.85
2023-01-11T16:03:11.202Z,100318.95
2023-01-11T16:05:50.315Z,100310.56
2023-01-11T16:08:38.428Z,100310.61
2023-01-11T16:11:39.431Z,100309.66
2023-01-11T16:14:46.306Z,100308.98
2023-01-11T16:17:19.166Z,100307.83
2023-01-11T16:19:47.177Z,100299.17
2023-01-11T16:22:19.739Z,100306.00
2023-01-11T16:24:52.787Z,100305.14
2023-01-11T16:27:26.766Z,100306.92
2023-01-11T16:29:55.919Z,100308.08
2023-01-11T16:32:32.692Z,100316.14
2023-01-11T16:35:02.607Z,100322.01
2023-01-11T16:37:49.487Z,100328.36
2023-01-11T16:40:25.032Z,100322.85
2023-01-11T16:42:59.315Z,100319.92
2023-01-11T16:45:42.342Z,100322.79
2023-01-11T16:48:18.273Z,100322.16
2023-01-11T16:50:58.338Z,100319.81
2023-01-11T16:53:28.215Z,100325.85
2023-01-11T16:56:05.624Z,100323.66
2023-01-11T16:58:38.823Z,100319.73
2023-01-11T17:01:12.818Z,100320.46
2023-01-11T17:03:46.985Z,100319.88
2023-01-11T17:06:16.698Z,100311.04
2023-01-11T17:08:52.975Z,100303.05
2023-01-11T17:11:36.867Z,100295.90
2023-01-11T17:14:11.458Z,100294.55
2023-01-11T17:16:43.113Z,100296.61
2023-01-11T17:19:24.172Z,100304.04
2023-01-11T17:21:55.012Z,100305.16
2023-01-11T17:24:24.933Z,100307.35
2023-01-11T17:26:56.928Z,100299.35
2023-01-11T17:29:35.500Z,100299.88
2023-01-11T17:32:07.637Z,100293.64
2023-01-11T17:34:38.003Z,100291.69
2023-01-11T17:37:14.328Z,100291.38
2023-01-11T17:40:05.111Z,100285.95
2023-01-11T17:42:51.772Z,100277.14
2023-01-11T17:45:24.778Z,100278.14
2023-01-11T17:47:55.041Z,100269.84
2023-01-11T17:50:34.530Z,100270.25
2023-01-11T17:53:30.822Z,100266.73
2023-01-11T17:56:00.137Z,100271.42
2023-01-11T17:58:36.162Z,100273.37
2023-01-11T18:01:18.175Z,100270.02
2023-01-11T18:03:59.168Z,100272.84
2023-01-11T18:06:39.966Z,100266.77
2023-01-11T18:09:18.698Z,100271.92
2023-01-11T18:11:47.360Z,100270.80
2023-01-11T18:14:27.243Z,100265.27
2023-01-11T18:17:03.096Z,100261.91
2023-01-11T18:19:32.936Z,100259.79
2023-01-11T18:22:01.321Z,100258.67
2023-01-11T18:24:43.122Z,100257.64
2023-01-11T18:27:24.495Z,100249.52
2023-01-11T18:29:54.043Z,100249.26
2023-01-11T18:32:23.292Z,100240.81
2023-01-11T18:34:53.545Z,100236.67
2023-01-11T18:37:21.999Z,100230.65
2023-01-11T18:39:51.054Z,100229.38
2023-01-11T18:42:24.348Z,100223.70
2023-01-11T18:44:52.285Z,100226.91
2023-01-11T18:47:22.903Z,100228.71
2023-01-11T18:49:52.326Z,100226.96
2023-01-11T18:52:22.558Z,100237.70
2023-01-11T18:54:51.384Z,100242.42
2023-01-11T18:57:19.427Z,100246.29
2023-01-11T18:59:47.393Z,100242.05
2023-01-11T19:04:37.314Z,100240.18
2023-01-11T19:07:05.280Z,100233.73
2023-01-11T19:09:33.209Z,100229.47
2023-01-11T19:12:01.721Z,100227.11
2023-01-11T19:14:29.569Z,100226.91
2023-01-11T19:16:57.461Z,100223.84
2023-01-11T19:19:25.333Z,100230.14
2023-01-11T19:21:53.185Z,100226.75
2023-01-11T19:24:21.633Z,100220.36
2023-01-11T19:26:49.807Z,100221.67
2023-01-11T19:29:19.039Z,100215.14
2023-01-11T19:31:47.820Z,100207.90
2023-01-11T19:34:15.884Z,100205.14
2023-01-11T19:36:44.331Z,100210.73
2023-01-11T19:39:12.392Z,100212.21
2023-01-11T19:41:57.934Z,100215.11
2023-01-11T19:44:31.961Z,100221.27
2023-01-11T19:47:17.224Z,100221.39
2023-01-11T19:49:45.380Z,100212.67
2023-01-11T19:52:18.944Z,100214.05
2023-01-11T19:54:47.066Z,100212.36
2023-01-11T19:57:19.062Z,100210.41
2023-01-11T19:59:47.597Z,100211.11
2023-01-11T20:02:19.609Z,100206.27
2023-01-11T20:04:47.967Z,100201.27
2023-01-11T20:07:16.592Z,100196.80
2023-01-11T20:09:44.567Z,100200.92
2023-01-11T20:12:15.637Z,100200.58
2023-01-11T20:14:44.632Z,100193.64
2023-01-11T20:17:13.400Z,100196.70
2023-01-11T20:19:43.180Z,100199.34
2023-01-11T20:22:11.050Z,100199.38
2023-01-11T20:24:39.045Z,100193.45
2023-01-11T20:27:07.014Z,100196.73
2023-01-11T20:29:34.923Z,100194.56
2023-01-11T20:32:21.167Z,100194.25
2023-01-11T20:34:57.297Z,100191.09
2023-01-11T20:37:25.126Z,100186.02
2023-01-11T20:39:52.959Z,100179.58
2023-01-11T20:42:21.168Z,100182.02
2023-01-11T20:44:49.093Z,100186.43
2023-01-11T20:47:17.032Z,100184.79
2023-01-11T20:49:44.796Z,100184.27
2023-01-11T20:52:14.954Z,100181.92
2023-01-11T20:54:42.789Z,100180.43
2023-01-11T20:57:12.598Z,100172.95
2023-01-11T20:59:40.593Z,100173.80
2023-01-11T21:02:10.504Z,100165.02
2023-01-11T21:04:38.379Z,100167.33
2023-01-11T21:07:06.235Z,100167.98
2023-01-11T21:09:34.252Z,100171.11
2023-01-11T21:12:02.228Z,100160.55
2023-01-11T21:14:30.556Z,100169.85
2023-01-11T21:16:58.519Z,100172.00
2023-01-11T21:19:26.663Z,100170.07
2023-01-11T21:21:54.561Z,100165.03
2023-01-11T21:24:23.220Z,100155.63
2023-01-11T21:26:51.363Z,100156.92
2023-01-11T21:29:19.373Z,100163.33
2023-01-11T21:31:47.546Z,100164.88
2023-01-11T21:34:15.512Z,100165.73
2023-01-11T21:36:43.760Z,100162.12
2023-01-11T21:39:13.975Z,100156.05
2023-01-11T21:41:55.091Z,100162.11
2023-01-11T21:44:28.881Z,100156.80
2023-01-11T21:46:56.908Z,100152.75
2023-01-11T21:49:24.818Z,100160.86
2023-01-11T21:51:53.253Z,100158.33
2023-01-11T21:54:21.286Z,100150.09
2023-01-11T21:56:50.280Z,100154.13
2023-01-11T21:59:18.360Z,100158.84
2023-01-11T22:01:49.180Z,100157.02
2023-01-11T22:04:21.149Z,100157.42
2023-01-11T22:06:54.683Z,100160.69
2023-01-11T22:09:25.862Z,100155.39
2023-01-11T22:11:54.609Z,100158.27
2023-01-11T22:14:23.026Z,100155.53
2023-01-11T22:16:51.075Z,100155.95
2023-01-11T22:19:19.078Z,100156.81
2023-01-11T22:21:47.609Z,100153.11
2023-01-11T22:24:16.287Z,100151.48
2023-01-11T22:26:44.257Z,100148.91
2023-01-11T22:29:12.429Z,100146.21
2023-01-11T22:31:43.581Z,100149.50
2023-01-11T22:34:13.666Z,100146.80
2023-01-11T22:36:43.405Z,100151.84
2023-01-11T22:39:13.005Z,100149.15
2023-01-11T22:41:41.037Z,100149.20
2023-01-11T22:44:09.504Z,100145.79
2023-01-11T22:46:38.519Z,100142.44
2023-01-11T22:49:06.846Z,100145.85
2023-01-11T22:51:34.968Z,100146.38
2023-01-11T22:54:04.523Z,100146.05
2023-01-11T22:56:33.292Z,100143.16
2023-01-11T22:59:01.425Z,100139.74
2023-01-11T23:01:35.342Z,100141.67
2023-01-11T23:04:03.927Z,100143.89
2023-01-11T23:06:37.440Z,100147.00
2023-01-11T23:09:08.592Z,100144.44
2023-01-11T23:12:17.565Z,100145.38
2023-01-11T23:14:45.457Z,100144.32
2023-01-11T23:17:13.340Z,100147.52
2023-01-11T23:19:41.826Z,100145.12
2023-01-11T23:22:10.277Z,100145.27
2023-01-11T23:24:38.977Z,100148.61
2023-01-11T23:27:07.031Z,100147.42
2023-01-11T23:29:35.675Z,100147.56
2023-01-11T23:32:10.835Z,100141.06
2023-01-11T23:34:38.869Z,100142.91
2023-01-11T23:37:06.682Z,100139.02
2023-01-11T23:39:34.635Z,100138.27
2023-01-11T23:42:21.580Z,100136.58
2023-01-11T23:44:49.559Z,100133.48
2023-01-11T23:47:21.381Z,100135.05
2023-01-11T23:49:51.254Z,100135.95
2023-01-11T23:52:22.035Z,100138.48
2023-01-11T23:54:50.539Z,100136.77
2023-01-11T23:57:19.714Z,100137.95
2023-01-11T23:59:47.660Z,100137.59
